Time;durP1;ratioP1;P1;durP2;ratioP2;P2;SDS_P1;SDS_P2;PMS_P1;PMS_P2;Temp;Humidity;BMP_temperature;BMP_pressure;BME280_temperature;BME280_humidity;BME280_pressure;Samples;Min_cycle;Max_cycle;Signal;HPM_P1;HPM_P2
2023/04/20 00:04:01;;;;;;;5.47;4.97;;;8.10;97.80;;;;;;10405824;28;20219;-82
2023/04/20 00:09:04;;;;;;;5.80;5.30;;;8.10;97.40;;;;;;10404544;28;20605;-82
2023/04/20 00:14:08;;;;;;;6.27;5.67;;;8.00;97.60;;;;;;10402200;28;20232;-81
2023/04/20 00:19:10;;;;;;;5.73;5.30;;;7.90;98.00;;;;;;10389550;28;20551;-82
2023/04/20 00:24:12;;;;;;;5.57;5.10;;;7.90;98.00;;;;;;10403017;28;20798;-81
2023/04/20 00:29:15;;;;;;;5.07;4.67;;;7.90;97.70;;;;;;10403141;28;20654;-82
2023/04/20 00:34:17;;;;;;;5.93;5.43;;;7.80;97.90;;;;;;10388503;28;20215;-81
2023/04/20 00:39:20;;;;;;;6.07;5.50;;;7.70;98.30;;;;;;10415412;28;20209;-82
2023/04/20 00:44:23;;;;;;;6.00;5.23;;;7.60;98.20;;;;;;10414174;28;20281;-81
2023/04/20 00:49:28;;;;;;;7.03;5.50;;;7.50;98.70;;;;;;10414331;28;20599;-82
2023/04/20 00:54:32;;;;;;;6.07;5.53;;;7.40;98.60;;;;;;10419249;28;20227;-82
2023/04/20 00:59:36;;;;;;;6.30;5.43;;;7.40;98.40;;;;;;10390080;28;20201;-82
2023/04/20 01:04:38;;;;;;;6.20;5.70;;;7.30;97.80;;;;;;10422148;28;20213;-82
2023/04/20 01:09:41;;;;;;;6.27;5.67;;;7.20;98.20;;;;;;10406889;28;20198;-82
2023/04/20 01:14:45;;;;;;;7.20;6.20;;;7.10;98.10;;;;;;10408196;28;20217;-82
2023/04/20 01:19:47;;;;;;;6.50;5.93;;;7.00;97.70;;;;;;10429879;28;20228;-81
2023/04/20 01:24:51;;;;;;;7.90;6.60;;;6.90;98.40;;;;;;10429040;28;20224;-81
2023/04/20 01:29:55;;;;;;;7.30;6.53;;;6.90;98.10;;;;;;10423595;28;20190;-81
2023/04/20 01:34:57;;;;;;;6.30;5.70;;;6.80;98.70;;;;;;10388202;28;20216;-82
2023/04/20 01:40:00;;;;;;;6.13;5.63;;;6.80;98.10;;;;;;10406376;28;20193;-82
2023/04/20 01:45:04;;;;;;;26.90;19.67;;;6.70;98.30;;;;;;10444693;28;20329;-82
2023/04/20 01:50:06;;;;;;;8.23;6.13;;;6.70;98.60;;;;;;10404198;28;20203;-82
2023/04/20 01:55:11;;;;;;;10.90;9.80;;;6.60;98.40;;;;;;10389715;28;20220;-83
2023/04/20 02:00:14;;;;;;;7.97;6.27;;;6.60;99.10;;;;;;10390484;28;20210;-82
2023/04/20 02:05:19;;;;;;;8.43;7.63;;;6.60;98.60;;;;;;10391169;28;20314;-82
2023/04/20 02:10:22;;;;;;;7.30;6.60;;;6.50;99.30;;;;;;10442120;28;20599;-82
2023/04/20 02:15:24;;;;;;;7.47;6.77;;;6.50;98.50;;;;;;10426250;28;20220;-81
2023/04/20 02:20:26;;;;;;;7.00;6.33;;;6.50;98.70;;;;;;10443535;28;20256;-82
2023/04/20 02:25:30;;;;;;;6.80;6.20;;;6.40;99.00;;;;;;10462739;28;20207;-81
2023/04/20 02:30:32;;;;;;;8.57;7.77;;;6.40;98.40;;;;;;10415285;28;20196;-82
2023/04/20 02:35:34;;;;;;;9.37;8.00;;;6.30;99.00;;;;;;10404934;28;20209;-82
2023/04/20 02:40:37;;;;;;;7.60;7.00;;;6.30;98.70;;;;;;10393252;28;20548;-81
2023/04/20 02:45:40;;;;;;;8.00;7.20;;;6.20;99.60;;;;;;10446657;28;20230;-82
2023/04/20 02:50:43;;;;;;;8.70;7.30;;;6.20;98.50;;;;;;10443262;28;20293;-82
2023/04/20 02:55:56;;;;;;;8.70;7.90;;;6.20;98.10;;;;;;10407209;28;20224;-81
2023/04/20 03:01:13;;;;;;;10.30;7.40;;;6.10;99.50;;;;;;10392246;28;20192;-82
2023/04/20 03:06:15;;;;;;;8.20;7.50;;;6.00;98.40;;;;;;10391643;28;20233;-81
2023/04/20 03:11:24;;;;;;;8.93;8.00;;;6.00;99.00;;;;;;10407634;28;20195;-82
2023/04/20 03:16:26;;;;;;;8.60;7.90;;;6.00;99.90;;;;;;10427686;22;20317;-80
2023/04/20 03:21:31;;;;;;;8.17;7.47;;;6.00;99.50;;;;;;10415238;28;20197;-79
2023/04/20 03:26:36;;;;;;;7.63;6.97;;;6.00;99.60;;;;;;10404684;28;20219;-80
2023/04/20 03:32:01;;;;;;;7.27;6.50;;;6.00;99.60;;;;;;10404587;28;20198;-80
2023/04/20 03:37:03;;;;;;;9.80;7.97;;;6.00;99.00;;;;;;10405182;28;20252;-80
2023/04/20 03:42:06;;;;;;;7.90;7.20;;;5.90;99.40;;;;;;10388587;28;20206;-80
2023/04/20 03:47:09;;;;;;;7.97;7.27;;;5.90;99.90;;;;;;10404725;28;20227;-80
2023/04/20 03:52:11;;;;;;;8.07;6.33;;;5.90;99.60;;;;;;10413155;28;20296;-80
2023/04/20 03:57:15;;;;;;;9.73;6.93;;;5.90;99.70;;;;;;10417740;28;20270;-79
2023/04/20 04:02:18;;;;;;;7.63;7.00;;;5.80;99.70;;;;;;10423064;28;20203;-79
2023/04/20 04:07:22;;;;;;;8.43;7.70;;;5.80;99.30;;;;;;10431458;28;20287;-79
2023/04/20 04:12:26;;;;;;;6.93;6.37;;;5.70;99.40;;;;;;10419934;28;20216;-79
2023/04/20 04:17:29;;;;;;;7.77;7.13;;;5.70;99.20;;;;;;10444196;28;20226;-80
2023/04/20 04:22:32;;;;;;;8.57;7.83;;;5.60;99.90;;;;;;10444814;28;20212;-79
2023/04/20 04:27:58;;;;;;;8.13;7.43;;;5.60;99.70;;;;;;10463473;28;20218;-80
2023/04/20 04:33:03;;;;;;;8.73;7.83;;;5.60;99.90;;;;;;10440523;28;20731;-78
2023/04/20 04:38:12;;;;;;;8.07;7.47;;;5.60;99.90;;;;;;10397343;28;20213;-79
2023/04/20 04:43:23;;;;;;;10.60;8.87;;;5.60;99.90;;;;;;10411351;28;20204;-79
2023/04/20 04:48:42;;;;;;;9.37;8.57;;;5.60;99.80;;;;;;10386585;28;20221;-78
2023/04/20 04:53:48;;;;;;;9.53;8.53;;;5.60;99.90;;;;;;10422870;28;20201;-81
2023/04/20 04:58:51;;;;;;;9.13;8.33;;;5.60;99.90;;;;;;10431098;28;20196;-80
2023/04/20 05:03:55;;;;;;;14.13;8.70;;;5.70;99.50;;;;;;10433899;28;20396;-79
2023/04/20 05:08:57;;;;;;;12.83;11.57;;;5.60;99.80;;;;;;10400632;28;20229;-80
2023/04/20 05:14:03;;;;;;;18.50;13.30;;;5.60;99.90;;;;;;10410016;28;20677;-80
2023/04/20 05:19:05;;;;;;;42.47;27.40;;;5.70;99.90;;;;;;10430098;28;20194;-80
2023/04/20 05:24:07;;;;;;;16.80;14.70;;;5.70;99.90;;;;;;10464191;28;20221;-79
2023/04/20 05:29:10;;;;;;;11.37;10.27;;;5.80;99.90;;;;;;10450262;28;20221;-80
2023/04/20 05:34:12;;;;;;;9.97;9.07;;;5.80;99.90;;;;;;10424799;28;20226;-79
2023/04/20 05:39:14;;;;;;;10.40;9.50;;;5.80;99.90;;;;;;10439383;28;20258;-79
2023/04/20 05:44:18;;;;;;;9.37;8.67;;;5.90;99.90;;;;;;10384955;28;20212;-79
2023/04/20 05:49:20;;;;;;;12.60;11.30;;;6.00;99.90;;;;;;10376032;28;20203;-78
2023/04/20 05:54:22;;;;;;;11.30;10.20;;;6.10;99.90;;;;;;10444173;28;20706;-78
2023/04/20 05:59:26;;;;;;;11.90;10.70;;;6.20;99.90;;;;;;10430025;28;20259;-79
2023/04/20 06:04:29;;;;;;;11.07;10.07;;;6.30;99.90;;;;;;10401312;28;20216;-78
2023/04/20 06:09:31;;;;;;;10.37;8.53;;;6.50;99.90;;;;;;10414665;28;20268;-79
2023/04/20 06:14:34;;;;;;;10.80;9.70;;;6.60;99.90;;;;;;10416358;28;20313;-79
2023/04/20 06:19:36;;;;;;;10.53;9.57;;;6.80;99.90;;;;;;10361933;28;20195;-79
2023/04/20 06:24:41;;;;;;;11.20;10.23;;;6.90;99.90;;;;;;10419888;28;20305;-79
2023/04/20 06:29:44;;;;;;;12.30;11.13;;;7.00;99.90;;;;;;10425193;28;20293;-79
2023/04/20 06:34:47;;;;;;;11.40;9.80;;;7.20;99.90;;;;;;10422158;28;20256;-79
2023/04/20 06:39:53;;;;;;;10.97;9.93;;;7.40;99.90;;;;;;10430108;28;20198;-80
2023/04/20 06:44:57;;;;;;;11.10;10.00;;;7.50;99.90;;;;;;10446619;28;20231;-80
2023/04/20 06:49:59;;;;;;;10.73;9.80;;;7.60;99.90;;;;;;10435937;28;20194;-80
2023/04/20 06:55:01;;;;;;;11.50;10.43;;;7.70;99.90;;;;;;10428541;28;20559;-79
2023/04/20 07:00:07;;;;;;;11.80;10.80;;;7.80;99.90;;;;;;10443723;28;20206;-79
2023/04/20 07:05:09;;;;;;;12.13;11.13;;;7.90;99.90;;;;;;10423239;28;20224;-77
2023/04/20 07:10:13;;;;;;;10.70;8.57;;;8.00;99.90;;;;;;10419022;28;20228;-78
2023/04/20 07:15:17;;;;;;;12.07;10.83;;;8.20;99.90;;;;;;10441197;28;20224;-79
2023/04/20 07:20:19;;;;;;;10.23;9.40;;;8.30;99.90;;;;;;10406793;28;20210;-78
2023/04/20 07:25:22;;;;;;;10.20;9.40;;;8.40;99.90;;;;;;10448235;28;20256;-77
2023/04/20 07:30:25;;;;;;;11.63;10.63;;;8.50;99.90;;;;;;10446586;28;20282;-78
2023/04/20 07:35:27;;;;;;;11.03;10.03;;;8.90;99.90;;;;;;10403652;28;20210;-78
2023/04/20 07:40:29;;;;;;;12.83;10.03;;;9.30;99.90;;;;;;10427578;28;20652;-78
2023/04/20 07:45:32;;;;;;;10.23;9.13;;;9.70;99.60;;;;;;10444843;28;20300;-78
2023/04/20 07:50:37;;;;;;;10.70;9.70;;;10.00;97.90;;;;;;10410264;28;20222;-79
2023/04/20 07:55:39;;;;;;;10.57;9.43;;;10.20;97.50;;;;;;10443903;28;20206;-78
2023/04/20 08:00:45;;;;;;;9.83;8.90;;;10.40;96.20;;;;;;10426513;28;20331;-78
2023/04/20 08:05:47;;;;;;;10.40;9.30;;;10.60;95.30;;;;;;10407114;28;20207;-79
2023/04/20 08:10:49;;;;;;;12.10;9.37;;;10.70;94.30;;;;;;10428531;28;20191;-78
2023/04/20 08:15:52;;;;;;;9.73;8.83;;;10.60;94.80;;;;;;10429697;28;20626;-78
2023/04/20 08:20:55;;;;;;;9.83;9.00;;;10.50;94.70;;;;;;10441525;28;20255;-78
2023/04/20 08:25:57;;;;;;;10.27;9.17;;;10.40;96.60;;;;;;10405101;28;20756;-79
2023/04/20 08:31:00;;;;;;;10.73;9.80;;;10.20;96.80;;;;;;10439386;28;20671;-79
2023/04/20 08:36:03;;;;;;;10.83;9.73;;;10.20;97.30;;;;;;10422555;28;20587;-78
2023/04/20 08:41:05;;;;;;;12.33;10.03;;;10.10;97.80;;;;;;10422352;28;20198;-78
2023/04/20 08:46:09;;;;;;;10.50;9.50;;;10.00;97.10;;;;;;10424607;28;20249;-79
2023/04/20 08:51:11;;;;;;;10.50;9.50;;;10.00;97.10;;;;;;10428426;28;20195;-78
2023/04/20 08:56:13;;;;;;;10.33;9.53;;;9.90;98.80;;;;;;10403417;28;20230;-77
2023/04/20 09:01:27;;;;;;;10.20;9.30;;;9.90;98.80;;;;;;10420385;28;20195;-79
2023/04/20 09:06:30;;;;;;;11.20;10.10;;;9.90;99.90;;;;;;10409637;28;20237;-78
2023/04/20 09:11:32;;;;;;;10.83;9.83;;;10.00;99.90;;;;;;10424110;28;20197;-78
2023/04/20 09:16:35;;;;;;;10.60;9.67;;;10.00;99.30;;;;;;10447303;22;20645;-81
2023/04/20 09:21:47;;;;;;;10.13;9.30;;;10.10;99.50;;;;;;10404700;28;20242;-81
2023/04/20 09:26:50;;;;;;;11.77;10.77;;;10.00;99.80;;;;;;10429921;28;20275;-81
2023/04/20 09:31:53;;;;;;;11.37;10.30;;;10.10;99.00;;;;;;10432923;28;20671;-81
2023/04/20 09:36:56;;;;;;;10.03;9.23;;;10.10;99.50;;;;;;10454884;28;20297;-81
2023/04/20 09:42:05;;;;;;;10.50;9.43;;;10.20;99.50;;;;;;10435147;28;20204;-81
2023/04/20 09:47:09;;;;;;;10.37;9.30;;;10.20;98.10;;;;;;10418698;28;20217;-81
2023/04/20 09:52:17;;;;;;;11.23;10.03;;;10.30;98.00;;;;;;10450951;28;20221;-81
2023/04/20 09:57:20;;;;;;;10.63;9.73;;;10.20;99.00;;;;;;10420833;28;20207;-81
2023/04/20 10:02:24;;;;;;;10.50;9.60;;;10.20;99.60;;;;;;10408054;28;20687;-81
2023/04/20 10:07:27;;;;;;;10.47;9.60;;;10.20;98.50;;;;;;10418876;28;20287;-81
2023/04/20 10:12:29;;;;;;;10.97;9.87;;;10.10;99.40;;;;;;10416119;28;20531;-80
2023/04/20 10:17:33;;;;;;;10.37;9.40;;;10.10;99.30;;;;;;10410229;28;20254;-81
2023/04/20 10:22:35;;;;;;;10.57;9.57;;;10.20;99.90;;;;;;10449850;28;20228;-83
2023/04/20 10:27:37;;;;;;;11.07;10.17;;;10.30;97.30;;;;;;10429446;28;20242;-82
2023/04/20 10:32:41;;;;;;;12.20;11.00;;;10.20;99.30;;;;;;10431497;28;20194;-81
2023/04/20 10:37:50;;;;;;;13.80;12.50;;;10.20;98.10;;;;;;10429545;28;20218;-81
2023/04/20 10:42:52;;;;;;;13.60;12.17;;;10.20;99.40;;;;;;10427958;28;20361;-81
2023/04/20 10:47:55;;;;;;;12.23;10.97;;;10.20;99.90;;;;;;10418805;28;20234;-81
2023/04/20 10:52:58;;;;;;;13.10;11.80;;;10.20;99.90;;;;;;10418127;28;20203;-81
2023/04/20 10:58:00;;;;;;;14.50;13.27;;;10.00;99.90;;;;;;10417603;28;20319;-81
2023/04/20 11:03:03;;;;;;;14.70;13.50;;;9.70;99.90;;;;;;10441428;28;20201;-81
2023/04/20 11:08:05;;;;;;;11.87;10.87;;;9.70;99.90;;;;;;10448483;28;20256;-81
2023/04/20 11:13:18;;;;;;;14.37;13.30;;;9.70;99.90;;;;;;10436374;28;20604;-81
2023/04/20 11:18:22;;;;;;;16.20;14.70;;;9.60;99.90;;;;;;10425766;28;20214;-81
2023/04/20 11:23:26;;;;;;;16.20;15.00;;;9.60;99.90;;;;;;10404428;28;20233;-80
2023/04/20 11:28:33;;;;;;;17.00;15.80;;;9.60;99.90;;;;;;10418537;28;20313;-81
2023/04/20 11:33:36;;;;;;;16.70;15.50;;;9.60;99.90;;;;;;10426545;28;20293;-80
2023/04/20 11:38:38;;;;;;;18.10;16.63;;;9.60;99.90;;;;;;10403591;28;20271;-81
2023/04/20 11:43:42;;;;;;;18.70;17.23;;;9.60;99.90;;;;;;10444416;28;20204;-81
2023/04/20 11:48:46;;;;;;;18.90;17.50;;;9.60;99.90;;;;;;10429172;28;20262;-81
2023/04/20 11:53:48;;;;;;;20.07;18.47;;;9.60;99.90;;;;;;10390879;28;20256;-81
2023/04/20 11:58:50;;;;;;;18.17;16.77;;;9.60;99.90;;;;;;10410398;28;20234;-80
2023/04/20 12:03:54;;;;;;;19.33;17.73;;;9.60;99.90;;;;;;10449298;28;20494;-81
2023/04/20 12:08:56;;;;;;;19.70;18.00;;;9.70;99.90;;;;;;10445233;28;20734;-82
2023/04/20 12:13:59;;;;;;;20.90;19.20;;;9.70;99.90;;;;;;10439384;28;20273;-82
2023/04/20 12:19:02;;;;;;;18.90;17.30;;;9.80;99.90;;;;;;10429215;28;20404;-80
2023/04/20 12:24:04;;;;;;;16.77;15.47;;;9.80;99.90;;;;;;10419801;28;20203;-81
2023/04/20 12:29:07;;;;;;;17.93;16.30;;;9.80;99.90;;;;;;10401857;28;20662;-81
2023/04/20 12:34:10;;;;;;;16.23;14.80;;;9.80;99.90;;;;;;10419214;28;20252;-80
2023/04/20 12:39:12;;;;;;;19.40;17.60;;;9.90;99.90;;;;;;10419385;28;20226;-79
2023/04/20 12:44:14;;;;;;;16.10;14.80;;;9.90;99.90;;;;;;10401694;28;20214;-80
2023/04/20 12:49:18;;;;;;;15.97;14.67;;;9.90;99.90;;;;;;10399689;28;20273;-81
2023/04/20 12:54:20;;;;;;;17.00;15.50;;;10.00;99.90;;;;;;10418226;28;20198;-80
2023/04/20 12:59:22;;;;;;;14.20;13.10;;;10.10;99.90;;;;;;10424365;28;20203;-81
2023/04/20 13:04:25;;;;;;;12.60;11.67;;;10.20;99.90;;;;;;10405953;28;20198;-81
2023/04/20 13:09:27;;;;;;;14.97;13.47;;;10.30;99.90;;;;;;10422003;28;20218;-81
2023/04/20 13:14:30;;;;;;;13.27;12.27;;;10.50;99.90;;;;;;10386446;28;20194;-81
2023/04/20 13:19:33;;;;;;;11.43;10.43;;;10.50;99.90;;;;;;10424735;28;20206;-80
2023/04/20 13:24:35;;;;;;;12.30;11.30;;;10.60;99.90;;;;;;10421943;28;20656;-81
2023/04/20 13:29:38;;;;;;;10.90;9.90;;;10.50;99.90;;;;;;10404218;28;20643;-81
2023/04/20 13:34:41;;;;;;;11.30;10.23;;;10.50;99.90;;;;;;10419292;28;20209;-81
2023/04/20 13:39:43;;;;;;;10.60;9.70;;;10.40;99.90;;;;;;10416803;28;20186;-81
2023/04/20 13:44:45;;;;;;;11.17;10.17;;;10.30;99.90;;;;;;10407801;28;20300;-82
2023/04/20 13:49:49;;;;;;;12.93;11.73;;;10.30;99.90;;;;;;10433904;28;20261;-82
2023/04/20 13:54:51;;;;;;;13.80;12.60;;;10.30;99.90;;;;;;10418695;28;20251;-81
2023/04/20 13:59:53;;;;;;;11.30;10.30;;;10.40;99.90;;;;;;10417887;28;20194;-81
2023/04/20 14:04:56;;;;;;;11.97;10.97;;;10.40;99.90;;;;;;10428891;28;20219;-81
2023/04/20 14:09:59;;;;;;;10.37;9.47;;;10.50;99.90;;;;;;10395476;28;20214;-81
2023/04/20 14:15:01;;;;;;;10.27;9.47;;;10.50;99.90;;;;;;10418954;28;20671;-80
2023/04/20 14:20:07;;;;;;;11.47;10.20;;;10.50;99.90;;;;;;10410028;28;20196;-81
2023/04/20 14:25:10;;;;;;;10.90;10.00;;;10.40;99.90;;;;;;10423752;28;20283;-80
2023/04/20 14:30:13;;;;;;;11.60;10.70;;;10.30;99.90;;;;;;10418172;28;20240;-81
2023/04/20 14:35:17;;;;;;;11.93;10.73;;;10.30;99.90;;;;;;10425531;28;20705;-81
2023/04/20 14:40:19;;;;;;;13.73;12.53;;;10.40;99.90;;;;;;10425739;28;20574;-81
2023/04/20 14:45:21;;;;;;;12.80;11.70;;;10.40;99.90;;;;;;10424737;28;20249;-80
2023/04/20 14:50:27;;;;;;;11.70;10.83;;;10.30;99.90;;;;;;10422693;28;20225;-80
2023/04/20 14:55:29;;;;;;;13.10;12.00;;;10.20;99.90;;;;;;10422517;28;20219;-81
2023/04/20 15:00:31;;;;;;;14.17;12.77;;;10.10;99.90;;;;;;10404271;28;20626;-81
2023/04/20 15:05:35;;;;;;;14.17;13.13;;;10.10;99.90;;;;;;10436584;28;20762;-81
2023/04/20 15:10:37;;;;;;;14.67;13.37;;;10.00;99.90;;;;;;10406642;28;20263;-80
2023/04/20 15:15:39;;;;;;;17.90;16.37;;;9.90;99.90;;;;;;10421791;28;20224;-80
2023/04/20 15:20:42;;;;;;;18.07;16.10;;;9.70;99.90;;;;;;10422309;28;20557;-81
2023/04/20 15:25:44;;;;;;;15.87;14.60;;;9.50;99.90;;;;;;10389238;28;20604;-81
2023/04/20 15:30:46;;;;;;;18.40;16.70;;;9.50;99.90;;;;;;10440695;28;20348;-83
2023/04/20 15:35:50;;;;;;;17.63;16.13;;;9.50;99.90;;;;;;10445457;28;20220;-81
2023/04/20 15:40:52;;;;;;;15.97;14.73;;;9.50;99.90;;;;;;10461437;28;20198;-81
2023/04/20 15:45:54;;;;;;;18.07;16.30;;;9.50;99.90;;;;;;10438863;28;20666;-81
2023/04/20 15:50:58;;;;;;;17.10;15.80;;;9.60;99.90;;;;;;10406061;28;20276;-80
2023/04/20 15:56:00;;;;;;;18.00;16.50;;;9.50;99.90;;;;;;10424414;28;20246;-81
2023/04/20 16:01:02;;;;;;;16.70;15.43;;;9.50;99.90;;;;;;10441739;28;20197;-81
2023/04/20 16:06:06;;;;;;;17.80;16.50;;;9.40;99.90;;;;;;10442455;28;20324;-81
2023/04/20 16:11:09;;;;;;;19.60;18.00;;;9.30;99.90;;;;;;10390798;28;20317;-81
2023/04/20 16:16:14;;;;;;;20.43;18.77;;;9.40;99.90;;;;;;10423892;28;20232;-81
2023/04/20 16:21:17;;;;;;;22.03;20.00;;;9.40;99.90;;;;;;10426289;28;20609;-81
2023/04/20 16:26:19;;;;;;;19.67;18.17;;;9.40;99.90;;;;;;10426514;28;20215;-81
2023/04/20 16:31:21;;;;;;;22.00;20.10;;;9.40;99.90;;;;;;10430369;28;20682;-80
2023/04/20 16:36:25;;;;;;;23.20;20.80;;;9.50;99.90;;;;;;10462263;28;20233;-81
2023/04/20 16:41:27;;;;;;;20.20;18.70;;;9.50;99.90;;;;;;10407860;28;20187;-80
2023/04/20 16:46:30;;;;;;;20.80;19.20;;;9.40;99.90;;;;;;10441879;28;20216;-80
2023/04/20 16:51:34;;;;;;;21.80;20.10;;;9.40;99.90;;;;;;10414902;28;20222;-81
2023/04/20 16:56:36;;;;;;;21.10;19.37;;;9.50;99.90;;;;;;10405001;28;20255;-81
2023/04/20 17:01:38;;;;;;;21.93;20.03;;;9.50;99.90;;;;;;10411295;28;20201;-81
2023/04/20 17:06:41;;;;;;;21.73;19.93;;;9.50;99.90;;;;;;10388590;28;20267;-81
2023/04/20 17:11:44;;;;;;;23.67;21.50;;;9.50;99.90;;;;;;10423629;28;20235;-81
2023/04/20 17:16:52;;;;;;;37.33;33.50;;;9.60;99.90;;;;;;10390684;28;20224;-81
2023/04/20 17:21:57;;;;;;;29.77;26.77;;;9.60;99.90;;;;;;10401805;28;20201;-81
2023/04/20 17:27:00;;;;;;;19.83;18.23;;;9.60;99.90;;;;;;10398037;28;20515;-81
2023/04/20 17:32:02;;;;;;;23.53;21.43;;;9.60;99.90;;;;;;10400077;28;20223;-81
2023/04/20 17:37:06;;;;;;;29.97;26.77;;;9.60;99.90;;;;;;10373893;28;20255;-81
2023/04/20 17:42:08;;;;;;;27.80;25.30;;;9.60;99.90;;;;;;10419961;28;20193;-81
2023/04/20 17:47:13;;;;;;;27.83;25.43;;;9.60;99.90;;;;;;10420720;28;20218;-81
2023/04/20 17:52:18;;;;;;;20.87;19.20;;;9.70;99.90;;;;;;10400194;28;20694;-81
2023/04/20 17:57:21;;;;;;;22.63;20.77;;;9.70;99.90;;;;;;10406682;28;20317;-81
2023/04/20 18:02:24;;;;;;;21.97;20.07;;;9.70;99.90;;;;;;10399856;28;20226;-81
2023/04/20 18:07:27;;;;;;;23.50;21.37;;;9.70;99.90;;;;;;10400688;28;20705;-81
2023/04/20 18:12:30;;;;;;;22.97;21.13;;;9.70;99.90;;;;;;10400503;28;20540;-81
2023/04/20 18:17:32;;;;;;;20.30;18.70;;;9.70;99.90;;;;;;10398406;28;20355;-81
2023/04/20 18:22:36;;;;;;;20.90;19.23;;;9.70;99.90;;;;;;10404040;28;20210;-80
2023/04/20 18:27:39;;;;;;;21.67;19.70;;;9.70;99.90;;;;;;10432291;28;20210;-80
2023/04/20 18:32:41;;;;;;;19.93;18.33;;;9.80;99.90;;;;;;10398871;28;20372;-80
2023/04/20 18:37:45;;;;;;;21.20;19.50;;;9.80;99.90;;;;;;10426954;28;20213;-80
2023/04/20 18:42:47;;;;;;;19.37;17.67;;;9.80;99.90;;;;;;10437833;28;20247;-80
2023/04/20 18:47:49;;;;;;;19.13;17.53;;;9.80;99.90;;;;;;10439853;28;20223;-80
2023/04/20 18:52:52;;;;;;;18.37;16.77;;;9.80;99.90;;;;;;10420963;28;20575;-82
2023/04/20 18:57:54;;;;;;;19.07;17.57;;;9.80;99.90;;;;;;10413801;28;20220;-82
2023/04/20 19:02:56;;;;;;;19.90;18.20;;;9.80;99.90;;;;;;10428189;28;20198;-82
2023/04/20 19:08:00;;;;;;;19.10;17.60;;;9.90;99.90;;;;;;10390507;28;20268;-81
2023/04/20 19:13:02;;;;;;;18.80;17.20;;;9.90;99.90;;;;;;10405547;28;20202;-82
2023/04/20 19:18:04;;;;;;;18.93;17.40;;;9.90;99.90;;;;;;10426647;28;20235;-82
2023/04/20 19:23:07;;;;;;;19.60;18.00;;;9.90;99.90;;;;;;10419240;28;20693;-81
2023/04/20 19:28:10;;;;;;;21.30;19.60;;;9.90;99.90;;;;;;10402254;28;20766;-80
2023/04/20 19:33:12;;;;;;;23.70;21.60;;;9.90;99.90;;;;;;10452308;28;20739;-82
2023/04/20 19:38:19;;;;;;;21.70;19.87;;;9.90;99.90;;;;;;10435923;28;20221;-81
2023/04/20 19:43:21;;;;;;;21.80;20.03;;;9.90;99.90;;;;;;10423134;28;20199;-82
2023/04/20 19:48:23;;;;;;;21.80;20.07;;;9.80;99.90;;;;;;10385965;28;20218;-82
2023/04/20 19:53:27;;;;;;;24.53;22.23;;;9.80;99.90;;;;;;10413555;28;20620;-82
2023/04/20 19:58:29;;;;;;;23.40;21.40;;;9.80;99.90;;;;;;10431942;28;20222;-82
2023/04/20 20:03:31;;;;;;;22.43;20.53;;;9.70;99.90;;;;;;10428596;28;20659;-81
2023/04/20 20:08:34;;;;;;;23.47;21.47;;;9.70;99.90;;;;;;10413893;28;20300;-82
2023/04/20 20:13:37;;;;;;;24.93;22.90;;;9.70;99.90;;;;;;10418248;28;20209;-82
2023/04/20 20:18:39;;;;;;;26.63;24.20;;;9.60;99.90;;;;;;10403342;28;20229;-82
2023/04/20 20:23:42;;;;;;;27.30;24.90;;;9.60;99.90;;;;;;10405714;28;20270;-82
2023/04/20 20:28:45;;;;;;;26.93;24.43;;;9.60;99.90;;;;;;10403231;28;20288;-82
2023/04/20 20:33:47;;;;;;;25.00;22.90;;;9.60;99.90;;;;;;10403879;28;20547;-82
2023/04/20 20:38:50;;;;;;;22.93;21.03;;;9.60;99.90;;;;;;10420697;28;20245;-84
2023/04/20 20:43:54;;;;;;;23.83;21.80;;;9.60;99.90;;;;;;10398938;28;20255;-84
2023/04/20 20:48:56;;;;;;;23.33;21.33;;;9.60;99.90;;;;;;10409578;28;20265;-81
2023/04/20 20:53:59;;;;;;;24.73;22.63;;;9.60;99.90;;;;;;10411006;28;20217;-84
2023/04/20 20:59:01;;;;;;;23.27;21.17;;;9.60;99.90;;;;;;10407338;28;20218;-84
2023/04/20 21:04:05;;;;;;;22.50;20.57;;;9.60;99.90;;;;;;10399646;28;20273;-84
2023/04/20 21:09:09;;;;;;;22.87;20.97;;;9.60;99.90;;;;;;10394746;28;20215;-84
2023/04/20 21:14:11;;;;;;;25.67;23.30;;;9.60;99.90;;;;;;10405258;28;20209;-84
2023/04/20 21:19:13;;;;;;;21.57;19.77;;;9.60;99.90;;;;;;10424208;28;20650;-82
2023/04/20 21:24:18;;;;;;;23.03;21.03;;;9.60;99.90;;;;;;10388265;28;20206;-82
2023/04/20 21:29:20;;;;;;;24.17;21.83;;;9.60;99.90;;;;;;10398819;28;20228;-82
2023/04/20 21:34:22;;;;;;;27.80;25.13;;;9.60;99.90;;;;;;10417521;28;20200;-81
2023/04/20 21:39:25;;;;;;;22.40;20.40;;;9.60;99.90;;;;;;10412947;28;20260;-82
2023/04/20 21:44:27;;;;;;;22.33;20.33;;;9.60;99.90;;;;;;10404143;28;20202;-82
2023/04/20 21:49:29;;;;;;;21.60;19.80;;;9.50;99.90;;;;;;10399926;28;20273;-82
2023/04/20 21:54:33;;;;;;;21.60;19.73;;;9.50;99.90;;;;;;10401711;28;20516;-82
2023/04/20 21:59:35;;;;;;;24.00;21.40;;;9.40;99.90;;;;;;10408667;28;20233;-82
2023/04/20 22:04:38;;;;;;;25.47;22.77;;;9.30;99.90;;;;;;10420259;28;20277;-82
2023/04/20 22:09:41;;;;;;;25.07;22.40;;;9.30;99.90;;;;;;10420065;28;20210;-82
2023/04/20 22:14:43;;;;;;;29.27;22.80;;;9.20;99.90;;;;;;10429439;28;20257;-82
2023/04/20 22:19:45;;;;;;;23.03;20.93;;;9.10;99.90;;;;;;10423042;28;20195;-83
2023/04/20 22:24:49;;;;;;;28.47;23.23;;;9.00;99.90;;;;;;10405607;28;20251;-83
2023/04/20 22:29:51;;;;;;;22.13;20.20;;;8.90;99.90;;;;;;10432121;28;20224;-82
2023/04/20 22:34:53;;;;;;;24.63;22.33;;;8.80;99.90;;;;;;10423277;28;20221;-82
2023/04/20 22:39:56;;;;;;;26.40;23.87;;;8.60;99.90;;;;;;10417069;28;20190;-82
2023/04/20 22:44:58;;;;;;;25.83;23.53;;;8.50;99.90;;;;;;10384421;28;20235;-82
2023/04/20 22:50:00;;;;;;;25.77;23.57;;;8.40;99.90;;;;;;10422160;28;20240;-82
2023/04/20 22:55:04;;;;;;;26.17;23.87;;;8.40;99.90;;;;;;10433920;28;20219;-81
2023/04/20 23:00:09;;;;;;;27.63;25.23;;;8.20;99.90;;;;;;10446384;28;20197;-81
2023/04/20 23:05:11;;;;;;;27.43;24.93;;;8.10;99.90;;;;;;10413075;28;20260;-81
2023/04/20 23:10:15;;;;;;;26.43;24.00;;;8.00;99.90;;;;;;10403536;28;20225;-81
2023/04/20 23:15:17;;;;;;;23.83;21.63;;;8.00;99.90;;;;;;10416055;28;20234;-82
2023/04/20 23:20:19;;;;;;;23.60;21.40;;;8.00;99.90;;;;;;10430172;28;20206;-81
2023/04/20 23:25:22;;;;;;;22.90;20.70;;;7.90;99.90;;;;;;10429046;28;20257;-81
2023/04/20 23:30:25;;;;;;;20.87;18.90;;;7.90;99.90;;;;;;10407480;28;20215;-82
2023/04/20 23:35:27;;;;;;;20.57;18.47;;;7.90;99.90;;;;;;10389801;28;20311;-82
2023/04/20 23:40:30;;;;;;;19.83;18.10;;;7.90;99.90;;;;;;10423392;28;20230;-81
2023/04/20 23:45:32;;;;;;;18.60;17.00;;;7.90;99.90;;;;;;10403896;28;20211;-81
2023/04/20 23:50:35;;;;;;;19.73;17.80;;;7.90;99.90;;;;;;10419741;28;20725;-81
2023/04/20 23:55:39;;;;;;;20.10;18.20;;;7.90;99.90;;;;;;10419159;28;20691;-79
